Observations for JERSEY AIRPORT, United Kingdom (EGJJ)

EGJJ 280520Z 11007KT 9999 FEW004 SCT013 BKN027 15/14 Q0998 TEMPO 3000 RADZ BKN003   
EGJJ 280450Z 11006KT 9999 FEW003 SCT020 14/14 Q0998 TEMPO 3000 RADZ BKN003  
EGJJ 280420Z 13005KT 100V180 9999 5000SW -DZ FEW004 BKN020 15/14 Q0998 TEMPO 3000 RADZ BKN003   
EGJJ 280350Z 14007KT 9999 FEW006 BKN028 15/14 Q0999 TEMPO 5000 RA BKN006
EGJJ 280320Z 15005KT 9999 -RA FEW006 BKN036 15/14 Q0999 TEMPO BKN010
EGJJ 280250Z 19004KT 9999 SCT012 BKN040 15/14 Q0999 TEMPO BKN010
EGJJ 272050Z VRB03KT 9999 BKN012 14/13 Q1003 NOSIG  
EGJJ 272020Z 28005KT 9999 FEW007 SCT011 14/13 Q1003 BECMG BKN011
EGJJ 271950Z 28005KT 9999 FEW010 14/13 Q1003 NOSIG  
EGJJ 271920Z 30005KT 9999 FEW006 14/13 Q1003 NOSIG  
EGJJ 271850Z 32003KT 9999 FEW006 14/14 Q1003 NOSIG  
EGJJ 271820Z 30005KT 9999 SCT008 BKN049 15/14 Q1004 NOSIG   
EGJJ 271750Z 30008KT 9999 FEW006 BKN010 15/14 Q1004 BECMG BKN020
EGJJ 271720Z 30008KT 9999 FEW006 BKN010 14/14 Q1004 BECMG BKN020
EGJJ 271650Z 30006KT 9999 BKN006 14/14 Q1004 BECMG SCT006   
EGJJ 271620Z 31007KT 9999 FEW002 BKN005 14/14 Q1005 BECMG SCT005
EGJJ 271550Z 28007KT 9999 FEW002 BKN004 14/14 Q1005 BECMG SCT004
EGJJ 271520Z 30007KT 9999 VCSH FEW002 BKN005 14/14 Q1005 BECMG SCT005   
EGJJ 271450Z 32007KT 6000 -SHRA FEW002 BKN003 BKN030 14/14 Q1005 BECMG SCT005   
EGJJ 271420Z 30005KT 3500 +SHRA BCFG FEW002 BKN005 BKN025CB 14/14 Q1005 BECMG 8000 NSW SCT005   
EGJJ 271350Z 32003KT 6000 SHRA FEW003 BKN005 BKN025CB 14/14 Q1005 BECMG NSW SCT012  
EGJJ 271320Z 30005KT 7000 SHRA FEW003 SCT005 BKN025CB 14/14 Q1005 BECMG NSW 
EGJJ 271250Z 33005KT 6000 SHRA SCT003 BKN025CB 14/14 Q1006 TEMPO 4000 TSRA  
EGJJ 271220Z 31007KT 6000 SHRA FEW003 BKN004 BKN019CB 14/14 Q1006 TEMPO 4000 TSRA   
EGJJ 271150Z 32008KT 5000 SHRA BKN004 BKN019CB 15/14 Q1006 TEMPO 4000 TSRA  
EGJJ 271120Z 30008KT 9999 -SHRA SCT003 BKN019 15/14 Q1006 TEMPO 5000 SHRA BKN003 BKN040CB   
EGJJ 271050Z 30009KT 9999 -SHRA FEW004 SCT019 15/14 Q1006 TEMPO 5000 SHRA BKN004 BKN040CB   
EGJJ 271020Z 31009KT 9999 -SHRA FEW006 SCT040 15/14 Q1006 TEMPO 5000 SHRA BKN006 BKN040CB   
EGJJ 270950Z 31006KT 9999 -SHRA FEW006 15/14 Q1006 TEMPO 5000 SHRA BKN040CB 
EGJJ 270920Z 31012KT 9999 -SHRA FEW006 16/14 Q1007 TEMPO 5000 SHRA BKN040CB 
EGJJ 270850Z 31011KT 9999 FEW008 16/14 Q1007 TEMPO 5000 SHRA BKN040CB   
EGJJ 270820Z 29009KT 9999 FEW033 16/13 Q1007 TEMPO 5000 SHRA BKN040CB   
EGJJ 270750Z 31008KT 9999 FEW034 16/14 Q1007 NOSIG  
EGJJ 270720Z 31008KT 9999 FEW034 16/14 Q1007 NOSIG  
EGJJ 270650Z 32008KT 9999 FEW034 16/14 Q1007 NOSIG  
EGJJ 270620Z 34004KT 9999 FEW006 15/14 Q1007 NOSIG  
EGJJ 270550Z 32007KT 9999 FEW006 16/14 Q1007 NOSIG  
EGJJ 270520Z 32006KT 9999 FEW010 15/14 Q1007 NOSIG  
EGJJ 270450Z 35004KT 9999 FEW038 15/14 Q1007 NOSIG